Time;durP1;ratioP1;P1;durP2;ratioP2;P2;SDS_P1;SDS_P2;PMS_P1;PMS_P2;Temp;Humidity;BMP_temperature;BMP_pressure;BME280_temperature;BME280_humidity;BME280_pressure;Samples;Min_cycle;Max_cycle;Signal;HPM_P1;HPM_P2
2023/06/26 05:55:53;;;;;;;4.72;2.30;;;;;;;22.13;86.79;101159.53;5037386;28;20052;-83
2023/06/26 05:58:21;;;;;;;6.40;2.75;;;;;;;22.20;85.82;101158.53;5040870;28;20420;-81
2023/06/26 06:00:46;;;;;;;4.82;3.00;;;;;;;22.24;84.80;101172.69;5048928;28;20108;-82
2023/06/26 06:03:12;;;;;;;6.43;2.42;;;;;;;22.09;84.29;101175.13;5048047;28;20484;-82
2023/06/26 06:05:37;;;;;;;5.10;2.78;;;;;;;22.16;83.31;101186.34;5052574;28;20067;-82
2023/06/26 06:08:03;;;;;;;2.60;1.95;;;;;;;21.97;82.96;101185.25;5051383;28;20032;-82
2023/06/26 06:10:28;;;;;;;6.70;2.50;;;;;;;23.06;79.86;101195.06;5051625;28;20055;-83
2023/06/26 06:12:54;;;;;;;4.97;2.13;;;;;;;22.98;78.52;101200.19;5051170;28;20052;-82
2023/06/26 06:15:20;;;;;;;4.57;2.33;;;;;;;23.17;75.75;101206.13;5056252;28;20107;-82
2023/06/26 06:17:45;;;;;;;3.70;2.50;;;;;;;23.26;75.16;101209.13;5042897;28;20028;-81
2023/06/26 06:20:11;;;;;;;3.25;1.52;;;;;;;23.27;74.30;101211.50;5057685;28;20465;-81
2023/06/26 06:22:36;;;;;;;2.97;1.80;;;;;;;23.07;73.76;101208.09;5057299;28;20515;-81
2023/06/26 06:25:02;;;;;;;2.60;2.15;;;;;;;23.18;72.77;101224.88;5043752;28;20033;-81
2023/06/26 06:27:28;;;;;;;3.58;1.60;;;;;;;23.06;73.64;101232.19;5048394;28;20033;-82
2023/06/26 06:29:53;;;;;;;4.57;2.67;;;;;;;23.18;74.01;101230.59;5053436;28;20063;-81
2023/06/26 06:32:18;;;;;;;4.15;1.70;;;;;;;23.11;74.56;101243.84;5060969;28;20051;-81
2023/06/26 06:34:44;;;;;;;5.57;1.67;;;;;;;23.34;73.77;101239.06;5061129;28;20044;-81
2023/06/26 06:37:09;;;;;;;3.20;1.88;;;;;;;23.46;73.27;101248.84;5055547;28;20681;-80
2023/06/26 06:39:34;;;;;;;3.92;2.08;;;;;;;23.49;73.52;101256.50;5055726;28;20028;-77
2023/06/26 06:42:00;;;;;;;4.72;1.85;;;;;;;23.47;72.97;101267.59;5046969;28;20115;-77
2023/06/26 06:44:25;;;;;;;3.67;2.00;;;;;;;23.37;73.77;101271.59;5063134;28;20037;-77
2023/06/26 06:46:50;;;;;;;5.60;2.05;;;;;;;23.50;73.04;101266.66;5054615;28;20024;-76
2023/06/26 06:49:16;;;;;;;4.05;1.90;;;;;;;23.38;73.53;101281.75;5062475;28;20017;-77
2023/06/26 06:51:41;;;;;;;2.30;1.38;;;;;;;23.81;72.57;101271.81;5064051;28;20039;-77
2023/06/26 06:54:06;;;;;;;5.03;2.58;;;;;;;23.87;70.76;101282.19;5058512;28;20127;-77
2023/06/26 06:56:32;;;;;;;3.05;2.00;;;;;;;24.04;70.86;101279.97;5097949;28;20030;-76
2023/06/26 06:58:58;;;;;;;3.22;2.22;;;;;;;23.90;71.53;101286.16;5089582;28;20047;-77
2023/06/26 07:01:23;;;;;;;5.20;2.13;;;;;;;23.98;70.82;101292.44;5100487;28;20019;-79
2023/06/26 07:03:48;;;;;;;4.53;2.47;;;;;;;23.81;72.36;101286.09;5079483;28;20276;-76
2023/06/26 07:06:14;;;;;;;3.67;1.52;;;;;;;23.91;71.40;101293.50;5104055;28;20391;-75
2023/06/26 07:08:39;;;;;;;2.90;1.63;;;;;;;23.93;70.46;101302.41;5078325;28;20062;-75
2023/06/26 07:11:04;;;;;;;4.95;2.47;;;;;;;23.70;71.65;101312.94;5090767;28;20768;-76
2023/06/26 07:13:30;;;;;;;6.03;1.98;;;;;;;23.75;70.71;101303.78;5084912;28;20028;-76
2023/06/26 07:15:55;;;;;;;2.28;1.50;;;;;;;23.92;69.20;101310.19;5104150;28;20028;-76
2023/06/26 07:18:20;;;;;;;3.42;1.90;;;;;;;23.65;69.99;101316.34;5101572;28;20521;-79
2023/06/26 07:20:46;;;;;;;7.15;1.85;;;;;;;23.81;69.84;101303.25;5093390;28;20662;-79
2023/06/26 07:23:11;;;;;;;3.67;1.90;;;;;;;23.74;70.46;101307.91;5088683;28;20035;-79
2023/06/26 07:25:37;;;;;;;5.30;2.20;;;;;;;23.97;69.64;101311.69;5096174;28;20066;-79
2023/06/26 07:28:02;;;;;;;6.35;2.42;;;;;;;23.87;70.51;101315.69;5096347;28;20023;-79
2023/06/26 07:30:28;;;;;;;6.20;2.42;;;;;;;23.73;71.39;101317.72;5077426;28;20475;-79
2023/06/26 07:32:53;;;;;;;6.10;2.10;;;;;;;23.68;71.37;101329.75;5092790;28;20035;-78
2023/06/26 07:35:19;;;;;;;7.43;2.65;;;;;;;23.76;70.91;101338.94;5081140;28;20065;-79
2023/06/26 07:37:44;;;;;;;3.30;1.80;;;;;;;24.01;70.71;101335.19;5097806;28;20032;-79
2023/06/26 07:40:10;;;;;;;3.75;2.35;;;;;;;24.02;70.73;101336.81;5093685;28;20024;-82
2023/06/26 07:42:36;;;;;;;5.93;2.17;;;;;;;23.87;71.37;101332.84;5083141;28;20035;-79
2023/06/26 07:45:05;;;;;;;4.00;2.13;;;;;;;24.05;69.89;101344.44;5095311;28;20024;-79
2023/06/26 07:47:30;;;;;;;5.65;2.25;;;;;;;23.89;71.19;101341.75;5098215;28;20114;-78
2023/06/26 07:49:55;;;;;;;4.78;2.35;;;;;;;24.14;69.53;101353.16;5107645;28;20114;-78
2023/06/26 07:52:21;;;;;;;3.85;1.55;;;;;;;23.99;70.69;101340.59;5080524;28;20406;-79
2023/06/26 07:54:46;;;;;;;5.13;2.92;;;;;;;23.83;71.40;101344.41;5096254;28;20054;-79
2023/06/26 07:57:12;;;;;;;6.20;2.42;;;;;;;24.25;69.16;101346.25;5084991;28;20032;-80
2023/06/26 07:59:38;;;;;;;5.65;2.38;;;;;;;24.03;69.99;101344.13;5084194;28;20180;-79
2023/06/26 08:02:03;;;;;;;3.28;1.65;;;;;;;23.83;71.23;101344.41;5099555;28;20020;-80
2023/06/26 08:04:32;;;;;;;3.67;2.22;;;;;;;23.43;70.63;101355.47;5100807;28;20023;-79
2023/06/26 08:06:59;;;;;;;4.50;2.05;;;;;;;23.28;72.90;101370.19;5099099;28;20506;-80
2023/06/26 08:09:28;;;;;;;3.22;1.80;;;;;;;23.71;70.57;101377.41;5094351;28;20039;-80
2023/06/26 08:11:54;;;;;;;3.67;2.10;;;;;;;24.31;69.42;101367.28;5102385;28;20429;-80
2023/06/26 08:14:20;;;;;;;3.58;1.90;;;;;;;24.47;67.59;101372.81;5106326;28;20031;-80
2023/06/26 08:16:46;;;;;;;5.88;2.35;;;;;;;24.12;69.05;101369.16;5100095;28;20307;-80
2023/06/26 08:19:12;;;;;;;3.63;1.85;;;;;;;23.84;69.50;101373.78;5098151;28;20027;-80
2023/06/26 08:21:38;;;;;;;6.68;2.25;;;;;;;24.05;69.42;101381.63;5093962;28;20550;-79
2023/06/26 08:24:03;;;;;;;5.70;1.80;;;;;;;24.01;68.09;101389.53;5100040;28;20028;-80
2023/06/26 08:26:29;;;;;;;4.72;1.90;;;;;;;24.33;68.21;101387.66;5096286;28;20027;-80
2023/06/26 08:28:54;;;;;;;4.07;1.95;;;;;;;23.87;69.87;101375.72;5094093;28;20051;-80
2023/06/26 08:31:20;;;;;;;4.25;2.05;;;;;;;23.80;69.84;101384.53;5095295;28;20031;-79
2023/06/26 08:33:46;;;;;;;3.90;2.15;;;;;;;23.84;67.34;101393.78;5096792;28;20387;-79
2023/06/26 08:36:12;;;;;;;5.05;1.80;;;;;;;24.30;67.77;101385.69;5100130;28;20102;-80
2023/06/26 08:38:40;;;;;;;5.05;2.03;;;;;;;24.48;66.50;101387.94;5081142;28;20122;-79
2023/06/26 08:41:05;;;;;;;3.42;2.35;;;;;;;24.52;68.01;101389.44;5104223;28;20066;-80
2023/06/26 08:43:31;;;;;;;3.55;2.03;;;;;;;24.24;67.89;101385.47;5101710;28;20463;-80
2023/06/26 08:45:56;;;;;;;5.45;2.60;;;;;;;24.29;68.53;101395.56;5090632;28;20038;-79
2023/06/26 08:48:21;;;;;;;2.92;2.30;;;;;;;24.34;67.21;101395.75;5084182;28;20033;-79
2023/06/26 08:50:49;;;;;;;4.43;2.70;;;;;;;24.93;65.48;101406.78;5090582;28;20035;-79
2023/06/26 08:53:34;;;;;;;7.43;2.67;;;;;;;24.91;66.32;101404.38;5094432;28;20102;-80
2023/06/26 08:55:59;;;;;;;5.38;2.22;;;;;;;24.49;67.57;101412.47;5095348;28;20039;-79
2023/06/26 08:58:25;;;;;;;6.25;2.20;;;;;;;24.86;65.66;101412.78;5092142;28;20070;-79
2023/06/26 09:00:51;;;;;;;4.82;2.40;;;;;;;24.15;69.28;101417.66;5098206;28;20031;-79
2023/06/26 09:03:17;;;;;;;3.17;2.60;;;;;;;23.70;70.30;101407.25;5091486;28;20102;-79
2023/06/26 09:05:42;;;;;;;4.07;2.65;;;;;;;24.49;67.69;101412.47;5075182;28;20418;-79
2023/06/26 09:08:08;;;;;;;4.68;2.22;;;;;;;24.91;65.09;101406.47;5093200;28;20024;-79
2023/06/26 09:10:34;;;;;;;6.28;3.00;;;;;;;24.52;67.02;101406.63;5098015;28;20039;-79
2023/06/26 09:13:01;;;;;;;5.55;3.05;;;;;;;24.41;68.26;101409.00;5091763;28;20032;-79
2023/06/26 09:15:28;;;;;;;4.00;2.58;;;;;;;24.62;67.40;101409.56;5078652;28;20024;-79
2023/06/26 09:17:57;;;;;;;5.38;2.58;;;;;;;24.50;69.52;101414.06;5094482;28;20044;-79
2023/06/26 09:20:23;;;;;;;6.00;3.40;;;;;;;24.60;66.75;101432.91;5082251;28;20531;-79
2023/06/26 09:22:48;;;;;;;4.20;2.65;;;;;;;24.63;67.62;101434.84;5097802;28;20095;-79
2023/06/26 09:25:13;;;;;;;4.80;2.72;;;;;;;24.62;64.56;101438.16;5104866;28;20089;-79
2023/06/26 09:27:39;;;;;;;3.25;2.85;;;;;;;24.36;66.33;101432.50;5095377;28;20028;-79
2023/06/26 09:30:09;;;;;;;5.05;3.20;;;;;;;24.93;62.69;101436.22;5096493;28;20046;-79
2023/06/26 09:32:37;;;;;;;7.18;2.67;;;;;;;24.77;62.30;101430.66;5094097;28;20078;-80
2023/06/26 09:35:04;;;;;;;5.13;2.08;;;;;;;24.85;63.42;101423.41;5102913;28;20023;-79
2023/06/26 09:37:29;;;;;;;2.65;2.35;;;;;;;24.92;60.96;101440.34;5082029;28;20038;-79
2023/06/26 09:39:55;;;;;;;3.80;3.22;;;;;;;25.02;61.62;101452.66;5100732;28;20035;-79
2023/06/26 09:42:20;;;;;;;5.63;2.88;;;;;;;24.79;63.92;101436.72;5100315;28;20024;-80
2023/06/26 09:44:47;;;;;;;6.65;2.78;;;;;;;24.17;66.72;101442.16;5098477;28;20061;-80
2023/06/26 09:47:16;;;;;;;4.40;2.83;;;;;;;24.47;66.62;101450.09;5079478;28;20466;-80
2023/06/26 09:49:42;;;;;;;10.35;3.55;;;;;;;24.67;66.48;101458.44;5094862;28;20510;-80
2023/06/26 09:52:08;;;;;;;5.38;3.20;;;;;;;24.88;65.66;101462.59;5088120;28;20016;-80
2023/06/26 09:54:34;;;;;;;7.85;2.92;;;;;;;24.48;66.40;101460.28;5092277;28;20196;-80
2023/06/26 09:57:10;;;;;;;3.83;2.53;;;;;;;24.84;65.83;101456.19;5076555;28;20468;-79
2023/06/26 09:59:36;;;;;;;5.45;2.70;;;;;;;24.98;65.52;101465.53;5096960;28;20035;-79
2023/06/26 10:02:02;;;;;;;6.85;3.10;;;;;;;25.28;62.41;101466.91;5081772;28;20418;-79
2023/06/26 10:04:27;;;;;;;5.40;2.92;;;;;;;25.23;62.24;101470.38;5095303;28;20061;-79
2023/06/26 10:06:57;;;;;;;4.07;2.50;;;;;;;25.04;62.38;101469.41;5078441;28;20031;-79
2023/06/26 10:09:23;;;;;;;6.00;2.70;;;;;;;24.84;60.22;101479.09;5094860;28;20484;-79
2023/06/26 10:11:52;;;;;;;4.30;1.90;;;;;;;24.58;59.62;101471.84;5095992;28;20027;-80
2023/06/26 10:14:19;;;;;;;4.38;1.80;;;;;;;24.93;59.51;101476.31;5094719;28;20535;-80
2023/06/26 10:16:46;;;;;;;5.75;1.92;;;;;;;24.47;58.55;101475.03;5095852;28;20600;-80
2023/06/26 10:19:14;;;;;;;4.78;2.15;;;;;;;24.51;57.37;101479.41;5096770;28;20408;-80
2023/06/26 10:21:40;;;;;;;3.58;1.75;;;;;;;24.94;56.63;101477.91;5103970;28;20020;-79
2023/06/26 10:24:06;;;;;;;3.63;1.85;;;;;;;25.18;55.02;101491.78;5099595;28;20104;-79
2023/06/26 10:26:37;;;;;;;3.90;1.90;;;;;;;25.21;57.97;101492.94;5101588;28;20058;-79
2023/06/26 10:29:03;;;;;;;4.38;1.73;;;;;;;25.45;56.42;101502.69;5088043;28;20023;-79
2023/06/26 10:31:30;;;;;;;4.70;1.88;;;;;;;25.29;54.88;101500.81;5098193;28;20523;-79
2023/06/26 10:33:55;;;;;;;8.60;2.38;;;;;;;25.35;55.64;101501.81;5096506;28;20051;-79
2023/06/26 10:36:28;;;;;;;3.50;1.77;;;;;;;25.38;54.85;101514.41;5100206;28;20070;-79
2023/06/26 10:39:05;;;;;;;5.75;1.70;;;;;;;25.17;55.76;101518.81;5099893;28;20028;-78
2023/06/26 10:41:38;;;;;;;5.50;1.70;;;;;;;24.85;57.58;101526.50;5101716;28;20020;-78
2023/06/26 10:44:08;;;;;;;4.10;1.95;;;;;;;24.95;58.66;101525.31;5097467;28;20114;-80
2023/06/26 10:46:47;;;;;;;4.85;2.17;;;;;;;25.16;57.82;101528.69;5097642;28;20101;-80
2023/06/26 10:49:13;;;;;;;3.60;1.85;;;;;;;25.43;57.58;101531.00;5092024;28;20047;-80
2023/06/26 10:51:46;;;;;;;3.80;2.20;;;;;;;25.09;56.02;101523.22;5098807;28;20081;-80
2023/06/26 10:54:15;;;;;;;5.07;1.48;;;;;;;25.05;57.73;101529.09;5100301;28;20417;-81
2023/06/26 10:56:48;;;;;;;3.53;1.75;;;;;;;25.50;56.74;101535.66;5082741;28;20104;-81
2023/06/26 10:59:19;;;;;;;3.40;1.77;;;;;;;25.40;53.82;101536.88;5090870;28;20035;-81
2023/06/26 11:01:46;;;;;;;3.45;2.00;;;;;;;25.58;57.33;101545.59;5103768;28;20028;-81
2023/06/26 11:04:17;;;;;;;6.95;1.77;;;;;;;25.51;56.33;101540.13;5093791;28;20035;-81
2023/06/26 11:06:46;;;;;;;2.88;1.60;;;;;;;25.81;54.06;101543.53;5078284;28;20019;-80
2023/06/26 11:09:14;;;;;;;3.42;1.30;;;;;;;25.50;54.87;101538.53;5099487;28;20035;-80
2023/06/26 11:11:52;;;;;;;2.38;1.60;;;;;;;25.84;54.65;101551.97;5097030;28;20115;-80
2023/06/26 11:14:23;;;;;;;3.80;2.90;;;;;;;25.62;53.18;101549.13;5099592;28;20441;-81
2023/06/26 11:16:49;;;;;;;2.67;1.52;;;;;;;25.61;53.23;101547.53;5105502;28;20079;-80
2023/06/26 11:19:16;;;;;;;4.53;1.50;;;;;;;25.05;54.02;101548.34;5094479;28;20023;-81
2023/06/26 11:21:42;;;;;;;3.50;1.20;;;;;;;25.12;55.18;101550.94;5096410;28;20110;-80
2023/06/26 11:24:08;;;;;;;1.95;1.35;;;;;;;25.35;56.35;101553.38;5098349;28;20102;-80
2023/06/26 11:26:41;;;;;;;6.28;1.77;;;;;;;25.09;55.92;101551.88;5097933;28;20051;-80
2023/06/26 11:29:07;;;;;;;3.55;1.60;;;;;;;25.37;51.77;101560.75;5101433;28;20036;-80
2023/06/26 11:31:34;;;;;;;7.07;1.35;;;;;;;25.29;49.99;101560.97;5099400;28;20032;-80
2023/06/26 11:34:01;;;;;;;4.80;1.70;;;;;;;25.53;52.20;101566.25;5096114;28;20103;-81
2023/06/26 11:36:27;;;;;;;2.38;1.02;;;;;;;24.77;53.13;101568.09;5095341;28;20028;-80
2023/06/26 11:39:01;;;;;;;4.75;1.30;;;;;;;25.03;51.58;101565.97;5098745;28;20471;-80
2023/06/26 11:41:29;;;;;;;4.38;1.48;;;;;;;25.22;52.81;101581.31;5081448;28;20391;-81
2023/06/26 11:43:56;;;;;;;3.55;1.42;;;;;;;25.40;52.41;101582.72;5096791;28;20476;-81
2023/06/26 11:46:22;;;;;;;4.45;1.17;;;;;;;25.27;50.23;101580.69;5096984;28;20529;-80
2023/06/26 11:48:48;;;;;;;4.78;1.10;;;;;;;25.67;49.74;101585.78;5075732;28;20369;-81
2023/06/26 11:51:14;;;;;;;3.72;1.10;;;;;;;26.14;50.07;101586.91;5102941;28;20376;-81
2023/06/26 11:53:44;;;;;;;3.58;1.45;;;;;;;25.23;47.60;101594.34;5091057;28;20166;-81
2023/06/26 12:10:51;;;;;;;2.80;0.82;;;;;;;26.04;48.66;101636.91;5050919;28;20405;-80
2023/06/26 12:13:16;;;;;;;1.02;0.90;;;;;;;25.66;50.51;101632.94;5053142;28;20036;-80
2023/06/26 12:15:42;;;;;;;2.78;1.38;;;;;;;25.85;49.34;101630.22;5047520;28;20036;-81
2023/06/26 12:18:09;;;;;;;1.17;0.80;;;;;;;25.86;48.24;101632.59;5053648;28;20357;-80
2023/06/26 12:20:40;;;;;;;4.78;1.17;;;;;;;26.06;48.96;101640.91;5074164;28;20032;-81
2023/06/26 12:23:12;;;;;;;2.10;1.27;;;;;;;25.41;49.10;101630.19;5051671;28;20058;-80
2023/06/26 12:25:37;;;;;;;3.35;1.90;;;;;;;25.59;50.89;101629.53;5059882;28;20558;-80
2023/06/26 12:28:03;;;;;;;2.10;1.05;;;;;;;25.49;50.33;101632.31;5053333;28;20508;-80
2023/06/26 12:30:28;;;;;;;5.25;1.13;;;;;;;25.85;49.51;101635.97;5062386;28;20028;-80
2023/06/26 12:32:54;;;;;;;6.30;1.35;;;;;;;25.54;50.77;101630.94;5058265;28;20370;-80
2023/06/26 12:35:19;;;;;;;1.67;1.10;;;;;;;26.32;49.49;101646.47;5060832;28;20029;-80
2023/06/26 12:37:45;;;;;;;4.68;1.20;;;;;;;25.99;50.14;101655.50;5059925;28;20115;-80
2023/06/26 12:40:19;;;;;;;5.32;2.13;;;;;;;25.88;48.68;101646.47;5059414;28;20020;-80
2023/06/26 12:42:45;;;;;;;2.88;1.27;;;;;;;26.16;49.30;101654.03;5049892;28;20661;-80
2023/06/26 12:45:12;;;;;;;2.92;1.15;;;;;;;25.84;47.83;101651.56;5054029;28;20051;-81
2023/06/26 12:47:38;;;;;;;6.63;2.05;;;;;;;25.08;50.11;101636.19;5060978;28;20032;-80
2023/06/26 12:50:05;;;;;;;3.40;1.27;;;;;;;25.19;50.75;101636.63;5050505;28;20042;-80
2023/06/26 12:52:30;;;;;;;2.33;1.20;;;;;;;25.75;50.99;101644.47;5049306;28;20634;-80
2023/06/26 12:54:57;;;;;;;2.28;0.98;;;;;;;25.97;49.24;101643.69;5057486;28;20028;-78
2023/06/26 12:57:23;;;;;;;2.35;1.00;;;;;;;25.86;50.30;101643.28;5055640;28;20027;-80
2023/06/26 12:59:48;;;;;;;3.20;1.13;;;;;;;25.54;51.84;101651.78;5049961;28;20036;-80
2023/06/26 13:02:14;;;;;;;4.00;2.05;;;;;;;25.83;48.89;101652.84;5051305;28;20550;-81
2023/06/26 13:04:39;;;;;;;2.63;0.90;;;;;;;25.26;50.11;101647.09;5052635;28;20033;-81
2023/06/26 13:07:06;;;;;;;2.40;1.05;;;;;;;25.64;49.25;101649.81;5055739;28;20055;-81
2023/06/26 13:09:36;;;;;;;4.93;1.30;;;;;;;25.86;49.83;101660.50;5076823;28;20058;-81
2023/06/26 13:12:03;;;;;;;2.17;1.00;;;;;;;25.56;50.62;101665.66;5093941;28;20431;-80
2023/06/26 13:14:29;;;;;;;3.42;1.30;;;;;;;25.30;50.80;101662.88;5091231;28;20031;-80
2023/06/26 13:16:54;;;;;;;2.63;1.50;;;;;;;25.40;51.40;101648.63;5091993;28;20035;-80
2023/06/26 13:19:20;;;;;;;3.83;1.00;;;;;;;25.28;50.74;101664.63;5085624;28;20034;-79
2023/06/26 13:21:45;;;;;;;5.05;1.83;;;;;;;25.20;50.66;101671.81;5085489;28;20487;-80
2023/06/26 13:24:10;;;;;;;3.15;1.30;;;;;;;25.44;51.90;101655.84;5088654;28;20028;-80
2023/06/26 13:26:36;;;;;;;5.50;1.33;;;;;;;25.12;52.54;101659.78;5093111;28;20034;-79
2023/06/26 13:29:02;;;;;;;3.15;1.00;;;;;;;24.29;54.35;101665.25;5082267;28;20066;-79
2023/06/26 13:31:27;;;;;;;4.72;1.50;;;;;;;25.07;51.11;101671.84;5078987;28;20024;-79
2023/06/26 13:33:53;;;;;;;4.35;1.27;;;;;;;24.70;52.45;101662.81;5096369;28;20400;-79
2023/06/26 13:36:19;;;;;;;3.75;1.20;;;;;;;24.29;50.65;101673.06;5088702;28;20028;-80
2023/06/26 13:38:45;;;;;;;3.70;1.45;;;;;;;25.23;50.65;101677.44;5087342;28;20453;-79
2023/06/26 13:41:11;;;;;;;2.28;1.45;;;;;;;25.80;48.04;101679.56;5091838;28;20027;-80
2023/06/26 13:43:36;;;;;;;1.70;1.20;;;;;;;24.86;49.25;101668.41;5091238;28;20094;-78
2023/06/26 13:46:02;;;;;;;3.08;1.30;;;;;;;24.14;50.40;101678.41;5095737;28;20031;-81
2023/06/26 13:48:28;;;;;;;3.65;1.50;;;;;;;24.38;51.16;101692.41;5085288;28;20582;-82
2023/06/26 13:50:54;;;;;;;3.45;1.10;;;;;;;24.57;52.30;101670.59;5072218;28;20119;-81
2023/06/26 13:53:19;;;;;;;3.90;1.13;;;;;;;24.41;51.76;101675.09;5087879;28;20055;-81
2023/06/26 13:55:44;;;;;;;3.13;2.00;;;;;;;24.53;50.67;101682.94;5094659;28;20028;-81
2023/06/26 13:58:11;;;;;;;4.93;1.23;;;;;;;24.15;50.39;101683.63;5082429;28;20028;-82
2023/06/26 14:00:37;;;;;;;2.13;1.67;;;;;;;24.85;50.53;101686.84;5089140;28;20036;-81
2023/06/26 14:03:03;;;;;;;2.35;1.10;;;;;;;24.53;50.71;101682.94;5095855;28;20032;-82
2023/06/26 14:05:30;;;;;;;3.50;1.60;;;;;;;24.30;50.85;101691.81;5075236;28;20041;-81
2023/06/26 14:07:55;;;;;;;3.30;1.25;;;;;;;24.91;49.47;101690.72;5073297;28;20134;-81
2023/06/26 14:10:22;;;;;;;1.92;1.27;;;;;;;25.12;49.56;101702.75;5089436;28;21256;-80
2023/06/26 14:12:47;;;;;;;3.20;1.05;;;;;;;25.01;50.90;101697.38;5090110;28;20506;-81
2023/06/26 14:15:12;;;;;;;4.70;1.65;;;;;;;24.95;50.38;101688.56;5084654;28;20024;-80
2023/06/26 14:17:39;;;;;;;2.75;1.42;;;;;;;25.55;46.88;101693.53;5089576;28;20032;-81
2023/06/26 14:20:09;;;;;;;1.30;0.80;;;;;;;25.22;48.87;101684.44;5088366;28;20101;-81
2023/06/26 14:22:35;;;;;;;2.22;1.33;;;;;;;25.46;49.12;101702.03;5095120;28;20055;-81
2023/06/26 14:25:00;;;;;;;1.92;0.80;;;;;;;25.58;48.95;101697.53;5088714;28;20039;-82
2023/06/26 14:27:26;;;;;;;6.18;2.70;;;;;;;26.05;47.63;101705.28;5083506;28;20028;-80
2023/06/26 14:29:51;;;;;;;4.72;1.55;;;;;;;26.24;44.67;101702.53;5097870;28;20024;-79
2023/06/26 14:32:16;;;;;;;2.35;0.80;;;;;;;26.63;45.83;101705.97;5080442;28;20028;-79
2023/06/26 14:34:42;;;;;;;3.65;1.65;;;;;;;26.77;44.95;101717.72;5095703;28;20451;-80
2023/06/26 14:37:07;;;;;;;2.92;1.25;;;;;;;26.20;44.35;101713.34;5097122;28;20050;-80
2023/06/26 14:39:33;;;;;;;3.00;1.10;;;;;;;26.00;46.32;101719.44;5094587;28;20031;-80
2023/06/26 14:41:58;;;;;;;4.55;2.45;;;;;;;26.11;46.37;101717.75;5096775;28;20032;-83
2023/06/26 14:44:23;;;;;;;2.45;1.00;;;;;;;25.58;48.16;101714.72;5095860;28;20020;-83
2023/06/26 14:46:49;;;;;;;1.85;0.95;;;;;;;25.19;49.72;101721.75;5079956;28;20050;-83
2023/06/26 14:49:14;;;;;;;3.72;1.33;;;;;;;25.76;48.47;101717.78;5095953;28;20031;-83
2023/06/26 14:51:40;;;;;;;3.10;1.05;;;;;;;25.40;49.33;101705.94;5092068;28;20115;-83
2023/06/26 14:54:06;;;;;;;3.20;1.45;;;;;;;25.12;50.46;101728.53;5099674;28;20015;-83
2023/06/26 14:56:31;;;;;;;2.80;1.02;;;;;;;24.49;52.16;101722.31;5097811;28;20543;-81
2023/06/26 14:58:57;;;;;;;2.60;1.10;;;;;;;25.07;50.54;101729.13;5073393;28;20089;-83
2023/06/26 15:01:23;;;;;;;4.65;1.40;;;;;;;25.56;48.82;101723.00;5093202;28;20023;-81
2023/06/26 15:03:48;;;;;;;2.72;1.25;;;;;;;25.77;47.75;101722.22;5096449;28;20164;-82
2023/06/26 15:06:14;;;;;;;4.57;1.27;;;;;;;25.93;47.23;101718.44;5098335;28;20115;-82
2023/06/26 15:08:40;;;;;;;2.78;1.75;;;;;;;26.14;46.32;101727.50;5090387;28;20458;-82
2023/06/26 15:11:05;;;;;;;4.15;1.90;;;;;;;25.90;47.19;101721.41;5087634;28;20128;-81
2023/06/26 15:13:31;;;;;;;2.80;1.27;;;;;;;26.22;46.46;101722.28;5091657;28;20070;-81
2023/06/26 15:15:56;;;;;;;1.45;1.00;;;;;;;26.33;46.47;101729.25;5088306;28;20107;-82
2023/06/26 15:18:22;;;;;;;3.15;1.60;;;;;;;25.62;47.53;101726.88;5071801;28;20035;-82
2023/06/26 15:20:47;;;;;;;2.95;1.15;;;;;;;26.27;46.90;101721.69;5088785;28;20028;-81
2023/06/26 15:23:12;;;;;;;3.28;1.73;;;;;;;26.42;46.57;101716.22;5094892;28;21509;-81
2023/06/26 15:25:38;;;;;;;3.85;1.10;;;;;;;26.36;45.78;101727.50;5094893;28;20031;-82
2023/06/26 15:28:05;;;;;;;2.22;1.08;;;;;;;25.80;45.30;101725.44;5090022;28;20024;-83
2023/06/26 15:30:30;;;;;;;2.25;1.73;;;;;;;25.45;47.95;101725.44;5092823;28;20102;-82
2023/06/26 15:32:55;;;;;;;1.80;1.27;;;;;;;25.46;48.06;101724.16;5079947;28;20062;-82
2023/06/26 15:35:21;;;;;;;1.67;1.20;;;;;;;24.70;48.35;101722.91;5079123;28;20032;-82
2023/06/26 15:37:46;;;;;;;2.60;1.20;;;;;;;24.49;50.18;101724.38;5094153;28;20032;-81
2023/06/26 15:40:12;;;;;;;4.20;1.67;;;;;;;25.46;49.49;101722.09;5096653;28;20472;-83
2023/06/26 15:42:46;;;;;;;3.67;1.30;;;;;;;25.82;46.88;101728.63;5081617;28;20495;-82
2023/06/26 15:45:11;;;;;;;2.83;1.05;;;;;;;25.88;47.28;101726.78;5099023;28;20459;-83
2023/06/26 15:47:37;;;;;;;3.83;1.02;;;;;;;26.15;45.17;101729.09;5078170;28;20031;-83
2023/06/26 15:50:02;;;;;;;3.03;1.20;;;;;;;26.05;44.48;101722.50;5098114;28;20038;-84
2023/06/26 15:52:27;;;;;;;2.65;1.30;;;;;;;26.10;45.92;101713.28;5081598;28;20031;-82
2023/06/26 15:54:53;;;;;;;3.80;1.13;;;;;;;25.93;43.30;101729.06;5077417;28;20051;-83
2023/06/26 15:57:18;;;;;;;5.25;0.90;;;;;;;25.04;47.22;101727.16;5092683;28;20036;-83
2023/06/26 15:59:43;;;;;;;10.90;2.13;;;;;;;25.25;45.83;101737.94;5097317;28;20031;-82
2023/06/26 16:02:09;;;;;;;2.90;1.85;;;;;;;25.27;45.70;101728.91;5089915;28;20024;-82
2023/06/26 16:04:35;;;;;;;3.08;1.17;;;;;;;25.06;47.90;101722.56;5088360;28;20028;-83
2023/06/26 16:07:00;;;;;;;5.78;1.90;;;;;;;25.91;46.03;101735.31;5074082;28;20027;-82
2023/06/26 16:09:26;;;;;;;5.20;2.05;;;;;;;25.64;45.44;101718.63;5095879;28;20541;-82
2023/06/26 16:11:51;;;;;;;8.07;1.67;;;;;;;25.09;47.95;101724.53;5092546;28;20068;-81
2023/06/26 16:14:17;;;;;;;3.22;1.20;;;;;;;25.47;47.74;101731.50;5095292;28;20075;-81
2023/06/26 16:16:42;;;;;;;7.15;2.08;;;;;;;25.44;46.05;101723.81;5091960;28;20027;-81
2023/06/26 16:19:07;;;;;;;3.33;1.67;;;;;;;25.50;47.84;101725.63;5096534;28;20036;-81
2023/06/26 16:21:33;;;;;;;7.70;1.83;;;;;;;25.22;47.62;101723.75;5095677;28;20034;-81
2023/06/26 16:24:00;;;;;;;1.38;1.08;;;;;;;25.29;49.16;101732.91;5090738;28;20706;-81
2023/06/26 16:26:25;;;;;;;4.43;1.35;;;;;;;25.27;47.50;101718.22;5090739;28;20023;-81
2023/06/26 16:28:51;;;;;;;3.17;1.42;;;;;;;25.37;47.25;101712.63;5089859;28;20377;-81
2023/06/26 16:31:16;;;;;;;2.85;1.08;;;;;;;25.44;47.13;101726.69;5080628;28;20491;-81
2023/06/26 16:33:43;;;;;;;3.58;1.10;;;;;;;25.68;46.66;101739.38;5094091;28;20027;-82
2023/06/26 16:36:09;;;;;;;2.55;1.17;;;;;;;25.81;46.79;101727.06;5095640;28;20105;-82
2023/06/26 16:38:34;;;;;;;2.30;1.40;;;;;;;25.23;48.28;101720.41;5102303;28;20061;-82
2023/06/26 16:41:00;;;;;;;2.63;1.33;;;;;;;25.08;48.63;101722.13;5093153;28;20024;-83
2023/06/26 16:43:25;;;;;;;2.15;1.02;;;;;;;25.03;49.12;101714.13;5097503;28;20027;-83
2023/06/26 16:45:50;;;;;;;2.83;1.20;;;;;;;24.86;48.79;101716.31;5097806;28;20090;-82
2023/06/26 16:48:16;;;;;;;4.55;1.60;;;;;;;24.78;49.03;101721.44;5095288;28;20114;-81
2023/06/26 16:50:41;;;;;;;2.35;1.15;;;;;;;25.39;47.22;101719.47;5099742;28;20955;-82
2023/06/26 16:53:07;;;;;;;4.68;1.50;;;;;;;24.98;48.53;101724.06;5089466;28;20049;-82
2023/06/26 16:55:32;;;;;;;3.17;1.27;;;;;;;24.53;48.47;101734.44;5086569;28;20088;-81
2023/06/26 16:57:57;;;;;;;3.90;1.38;;;;;;;24.59;45.86;101725.31;5093533;28;20043;-82
2023/06/26 17:00:23;;;;;;;3.13;1.40;;;;;;;24.85;46.58;101711.81;5097900;28;20024;-81
2023/06/26 17:02:48;;;;;;;3.05;1.30;;;;;;;24.92;45.82;101726.72;5083165;28;20485;-80
2023/06/26 17:05:14;;;;;;;2.80;1.02;;;;;;;24.50;45.29;101732.50;5095550;28;20028;-81
2023/06/26 17:07:40;;;;;;;2.55;1.23;;;;;;;24.52;46.14;101734.94;5074416;28;20031;-82
2023/06/26 17:10:06;;;;;;;2.38;1.42;;;;;;;23.92;46.45;101724.75;5092105;28;20047;-81
2023/06/26 17:12:31;;;;;;;1.83;1.15;;;;;;;24.28;42.85;101728.66;5091201;28;20480;-79
2023/06/26 17:14:57;;;;;;;3.72;1.63;;;;;;;24.40;44.09;101724.22;5091913;28;20081;-78
2023/06/26 17:17:22;;;;;;;2.72;1.23;;;;;;;23.15;45.32;101740.63;5096308;28;20032;-79
2023/06/26 17:19:48;;;;;;;3.83;1.35;;;;;;;23.80;43.45;101738.97;5091388;28;20031;-79
2023/06/26 17:22:14;;;;;;;2.38;0.90;;;;;;;23.78;45.79;101736.59;5092505;28;20042;-78
2023/06/26 17:24:39;;;;;;;2.80;1.42;;;;;;;24.29;46.64;101741.72;5092467;28;20107;-79
2023/06/26 17:27:12;;;;;;;4.05;1.33;;;;;;;24.21;44.88;101734.59;5103641;28;20038;-79
2023/06/26 17:29:41;;;;;;;2.58;1.05;;;;;;;24.04;42.52;101745.28;5097087;28;20042;-80